Time;durP1;ratioP1;P1;durP2;ratioP2;P2;SDS_P1;SDS_P2;PMS_P1;PMS_P2;Temp;Humidity;BMP_temperature;BMP_pressure;BME280_temperature;BME280_humidity;BME280_pressure;Samples;Min_cycle;Max_cycle;Signal;HPM_P1;HPM_P2
2023/01/04 00:01:48;;;;;;;9.75;1.77;;;;;;;7.42;100.00;101777.00;5070710;28;20044;-58
2023/01/04 00:04:16;;;;;;;4.30;1.90;;;;;;;7.44;100.00;101772.53;5075142;28;20052;-53
2023/01/04 00:06:44;;;;;;;6.05;1.85;;;;;;;7.41;100.00;101765.66;5075033;28;20045;-53
2023/01/04 00:09:12;;;;;;;9.40;1.95;;;;;;;7.43;100.00;101757.75;5074886;28;20542;-48
2023/01/04 00:11:40;;;;;;;6.68;2.00;;;;;;;7.40;100.00;101747.38;5074713;28;20392;-52
2023/01/04 00:14:10;;;;;;;10.68;2.67;;;;;;;7.37;100.00;101752.75;5070975;28;20052;-50
2023/01/04 00:16:39;;;;;;;12.68;2.30;;;;;;;7.39;100.00;101735.22;5071503;28;20467;-50
2023/01/04 00:19:11;;;;;;;10.20;2.25;;;;;;;7.38;100.00;101733.53;5072002;28;20574;-53
2023/01/04 00:21:40;;;;;;;9.98;2.30;;;;;;;7.36;100.00;101736.19;5070038;28;20044;-51
2023/01/04 00:24:09;;;;;;;7.20;2.28;;;;;;;7.32;100.00;101725.88;5073895;28;20064;-49
2023/01/04 00:26:37;;;;;;;7.90;2.17;;;;;;;7.33;100.00;101722.38;5070306;28;20056;-51
2023/01/04 00:29:07;;;;;;;5.88;2.40;;;;;;;7.34;100.00;101718.84;5071565;28;20105;-50
2023/01/04 00:31:35;;;;;;;8.27;2.30;;;;;;;7.33;100.00;101717.97;5074374;28;20547;-51
2023/01/04 00:34:05;;;;;;;5.78;2.15;;;;;;;7.32;100.00;101713.69;5074463;28;20047;-51
2023/01/04 00:36:35;;;;;;;6.50;2.55;;;;;;;7.32;100.00;101705.81;5074264;28;20040;-52
2023/01/04 00:39:11;;;;;;;11.25;2.72;;;;;;;7.31;100.00;101700.63;5074219;28;20361;-52
2023/01/04 00:41:40;;;;;;;8.27;2.20;;;;;;;7.27;100.00;101703.38;5069070;28;20415;-50
2023/01/04 00:44:27;;;;;;;7.20;2.40;;;;;;;7.29;100.00;101692.84;5070172;28;20048;-53
2023/01/04 00:46:56;;;;;;;7.95;2.47;;;;;;;7.28;100.00;101686.75;5072931;28;20040;-51
2023/01/04 00:49:24;;;;;;;7.05;2.15;;;;;;;7.26;100.00;101679.88;5074480;28;20051;-56
2023/01/04 00:51:54;;;;;;;11.80;2.80;;;;;;;7.24;100.00;101682.56;5072666;28;20049;-57
2023/01/04 00:54:22;;;;;;;9.35;2.75;;;;;;;7.24;100.00;101679.06;5070837;28;20522;-57
2023/01/04 00:56:51;;;;;;;10.80;2.70;;;;;;;7.26;100.00;101662.41;5071910;28;20040;-52
2023/01/04 00:59:21;;;;;;;8.18;2.30;;;;;;;7.24;100.00;101648.53;5073896;28;20045;-53
2023/01/04 01:01:50;;;;;;;6.47;2.50;;;;;;;7.28;100.00;101639.66;5072845;28;20044;-52
2023/01/04 01:04:21;;;;;;;8.05;2.97;;;;;;;7.26;100.00;101631.00;5069774;28;20105;-53
2023/01/04 01:06:50;;;;;;;9.02;2.10;;;;;;;7.23;100.00;101614.59;5071123;28;20461;-53
2023/01/04 01:09:21;;;;;;;9.55;2.50;;;;;;;7.28;100.00;101630.97;5073133;28;20049;-51
2023/01/04 01:11:50;;;;;;;7.45;2.25;;;;;;;7.28;100.00;101620.50;5071664;28;20143;-53
2023/01/04 01:14:21;;;;;;;5.78;2.20;;;;;;;7.31;100.00;101616.88;5073242;28;20052;-53
2023/01/04 01:16:52;;;;;;;9.35;3.03;;;;;;;7.35;100.00;101628.94;5073647;28;20045;-52
2023/01/04 01:19:25;;;;;;;5.88;2.35;;;;;;;7.33;100.00;101605.44;5072275;28;20162;-52
2023/01/04 01:21:53;;;;;;;6.97;2.55;;;;;;;7.37;100.00;101616.66;5073492;28;20048;-52
2023/01/04 01:24:25;;;;;;;6.10;2.35;;;;;;;7.40;100.00;101617.41;5073481;28;20123;-52
2023/01/04 01:26:54;;;;;;;7.05;2.88;;;;;;;7.44;100.00;101612.88;5073534;28;20538;-53
2023/01/04 01:29:22;;;;;;;8.63;2.47;;;;;;;7.45;100.00;101609.34;5073158;28;20114;-54
2023/01/04 01:31:51;;;;;;;6.45;2.25;;;;;;;7.47;100.00;101602.28;5073066;28;20078;-52
2023/01/04 01:34:19;;;;;;;7.28;2.70;;;;;;;7.44;100.00;101595.44;5072600;28;20566;-52
2023/01/04 01:36:47;;;;;;;7.50;2.45;;;;;;;7.48;100.00;101587.44;5072675;28;20052;-53
2023/01/04 01:39:15;;;;;;;6.78;2.50;;;;;;;7.47;100.00;101586.56;5073096;28;20045;-53
2023/01/04 01:41:45;;;;;;;9.65;2.53;;;;;;;7.49;100.00;101579.53;5071364;28;20127;-53
2023/01/04 01:44:53;;;;;;;10.07;2.70;;;;;;;7.49;100.00;101573.47;5069556;28;20056;-52
2023/01/04 01:47:25;;;;;;;6.57;2.40;;;;;;;7.48;100.00;101567.34;5072428;28;20051;-54
2023/01/04 01:49:54;;;;;;;8.73;2.40;;;;;;;7.51;100.00;101571.59;5072377;28;20163;-54
2023/01/04 01:52:26;;;;;;;7.80;2.22;;;;;;;7.52;100.00;101574.16;5071416;28;20052;-52
2023/01/04 01:54:59;;;;;;;8.90;2.40;;;;;;;7.55;100.00;101574.06;5072836;28;20052;-52
2023/01/04 01:57:33;;;;;;;7.65;2.47;;;;;;;7.56;100.00;101575.75;5072595;28;20432;-52
2023/01/04 02:00:05;;;;;;;6.85;2.00;;;;;;;7.61;100.00;101572.94;5071863;28;20515;-52
2023/01/04 02:02:33;;;;;;;9.18;3.00;;;;;;;7.61;100.00;101555.47;5066648;28;20044;-53
2023/01/04 02:05:02;;;;;;;8.73;2.20;;;;;;;7.64;100.00;101551.88;5069842;28;20048;-52
2023/01/04 02:07:31;;;;;;;8.95;2.50;;;;;;;7.67;100.00;101537.81;5069974;28;20057;-52
2023/01/04 02:09:59;;;;;;;9.35;2.55;;;;;;;7.74;100.00;101547.09;5068601;28;20509;-53
2023/01/04 02:12:29;;;;;;;5.30;2.17;;;;;;;7.75;100.00;101543.56;5072019;28;20036;-52
2023/01/04 02:14:57;;;;;;;5.88;2.15;;;;;;;7.78;100.00;101538.19;5072443;28;20056;-52
2023/01/04 02:17:36;;;;;;;8.70;2.70;;;;;;;7.81;100.00;101538.06;5072448;28;20059;-52
2023/01/04 02:20:33;;;;;;;6.90;2.35;;;;;;;7.83;100.00;101541.47;5072738;28;20434;-52
2023/01/04 02:23:46;;;;;;;4.60;2.10;;;;;;;7.84;100.00;101518.75;5070846;28;20086;-49
2023/01/04 02:26:44;;;;;;;;;;;;;;;7.84;100.00;101516.13;5068294;28;20053;-49
2023/01/04 02:30:01;;;;;;;7.93;2.50;;;;;;;7.87;100.00;101521.25;5071983;28;19925;-53
2023/01/04 02:32:45;;;;;;;5.47;2.00;;;;;;;7.90;100.00;101531.59;5072381;28;20488;-53
2023/01/04 02:35:21;;;;;;;4.15;2.10;;;;;;;7.90;100.00;101532.44;5072370;28;20123;-57
2023/01/04 02:37:58;;;;;;;6.25;2.25;;;;;;;7.92;100.00;101507.03;5072755;28;20079;-53
2023/01/04 02:40:34;;;;;;;6.40;2.42;;;;;;;7.91;100.00;101507.13;5072280;28;20052;-53
2023/01/04 02:46:02;;;;;;;7.13;2.67;;;;;;;7.95;100.00;101495.59;5072200;28;20450;-53
2023/01/04 02:51:30;;;;;;;6.57;2.70;;;;;;;8.00;100.00;101488.34;5072297;28;20063;-54
2023/01/04 02:54:04;;;;;;;4.00;2.40;;;;;;;8.00;100.00;101482.28;5068727;28;20047;-53
2023/01/04 02:56:49;;;;;;;6.18;2.88;;;;;;;8.00;100.00;101475.25;5067860;28;20408;-53
2023/01/04 02:59:36;;;;;;;7.90;2.78;;;;;;;8.03;100.00;101471.66;5072045;28;20431;-52
2023/01/04 03:08:12;;;;;;;4.50;2.38;;;;;;;8.05;100.00;101451.50;5073463;28;20090;-54
2023/01/04 03:10:45;;;;;;;5.93;2.47;;;;;;;8.08;100.00;101460.03;5071521;28;20080;-57
2023/01/04 03:13:16;;;;;;;4.88;2.13;;;;;;;8.11;100.00;101454.69;5075643;28;20060;-53
2023/01/04 03:15:48;;;;;;;3.80;2.25;;;;;;;8.14;100.00;101448.47;5075918;28;20048;-58
2023/01/04 03:18:21;;;;;;;4.88;2.13;;;;;;;8.16;100.00;101451.00;5074792;28;20056;-58
2023/01/04 03:20:52;;;;;;;4.50;2.22;;;;;;;8.17;100.00;101435.22;5075886;28;20053;-58
2023/01/04 03:37:45;;;;;;;5.38;2.15;;;;;;;8.31;100.00;101416.22;5075219;28;20487;-58
2023/01/04 03:48:57;;;;;;;5.03;2.00;;;;;;;8.36;100.00;101402.94;5075096;28;20040;-58
2023/01/04 03:51:29;;;;;;;4.25;2.10;;;;;;;8.38;100.00;101401.91;5074946;28;20041;-58
2023/01/04 03:54:02;;;;;;;6.57;2.03;;;;;;;8.44;100.00;101400.78;5075067;28;20052;-58
2023/01/04 03:56:32;;;;;;;4.95;1.90;;;;;;;8.46;100.00;101398.97;5075024;28;20048;-58
2023/01/04 03:59:04;;;;;;;3.87;1.97;;;;;;;8.47;100.00;101395.44;5075105;28;20112;-58
2023/01/04 04:01:32;;;;;;;4.15;1.90;;;;;;;8.50;100.00;101394.44;5074750;28;20094;-58
2023/01/04 04:09:34;;;;;;;3.83;2.03;;;;;;;8.57;100.00;101396.69;5074831;28;20048;-58
2023/01/04 04:12:02;;;;;;;5.10;2.30;;;;;;;8.62;100.00;101394.69;5073144;28;20040;-58
2023/01/04 04:14:30;;;;;;;3.92;1.90;;;;;;;8.67;100.00;101381.38;5069655;28;20102;-58
2023/01/04 04:16:58;;;;;;;3.92;2.03;;;;;;;8.70;100.00;101385.59;5072621;28;20136;-59
2023/01/04 04:19:27;;;;;;;4.65;2.20;;;;;;;8.72;100.00;101391.63;5074592;28;20044;-56
2023/01/04 04:21:55;;;;;;;3.90;2.17;;;;;;;8.74;100.00;101381.91;5073073;28;20399;-50
2023/01/04 04:24:26;;;;;;;5.10;2.50;;;;;;;8.77;100.00;101376.53;5070423;28;20132;-52
2023/01/04 04:26:55;;;;;;;4.50;2.10;;;;;;;8.78;100.00;101386.06;5072060;28;20395;-53
2023/01/04 04:29:25;;;;;;;4.47;2.50;;;;;;;8.80;100.00;101377.19;5074755;28;20037;-53
2023/01/04 04:31:53;;;;;;;6.20;2.70;;;;;;;8.85;100.00;101376.13;5074600;28;20079;-53
2023/01/04 04:34:21;;;;;;;5.90;2.50;;;;;;;8.92;100.00;101374.91;5074439;28;20048;-52
2023/01/04 04:36:49;;;;;;;5.90;2.40;;;;;;;8.89;100.00;101359.31;5074373;28;20491;-53
2023/01/04 04:39:18;;;;;;;3.88;2.17;;;;;;;8.91;100.00;101362.72;5072791;28;20064;-53
2023/01/04 04:41:45;;;;;;;3.45;2.25;;;;;;;8.92;100.00;101367.06;5069298;28;20564;-53
2023/01/04 04:44:16;;;;;;;5.03;2.40;;;;;;;8.94;100.00;101358.19;5072222;28;20546;-51
2023/01/04 04:46:45;;;;;;;5.10;2.47;;;;;;;8.98;100.00;101358.03;5072708;28;20049;-52
2023/01/04 04:49:14;;;;;;;4.50;2.45;;;;;;;8.99;100.00;101351.84;5073372;28;20094;-58
2023/01/04 04:51:43;;;;;;;3.88;2.30;;;;;;;9.01;100.00;101349.97;5069390;28;20090;-57
2023/01/04 04:54:16;;;;;;;5.97;2.35;;;;;;;9.05;100.00;101343.66;5071659;28;20044;-57
2023/01/04 04:56:44;;;;;;;3.88;2.30;;;;;;;9.02;100.00;101352.53;5074041;28;20060;-48
2023/01/04 04:59:14;;;;;;;6.40;2.72;;;;;;;9.02;100.00;101356.94;5073851;28;20056;-52
2023/01/04 05:01:42;;;;;;;4.80;2.53;;;;;;;9.06;100.00;101355.84;5073564;28;20051;-51
2023/01/04 05:04:15;;;;;;;5.45;2.88;;;;;;;9.06;100.00;101348.00;5073827;28;20127;-51
2023/01/04 05:06:43;;;;;;;;;;;;;;;9.09;100.00;101339.94;5074477;28;20127;-52
2023/01/04 05:09:12;;;;;;;4.97;2.60;;;;;;;9.11;100.00;101338.09;5073770;28;20334;-52
2023/01/04 05:14:27;;;;;;;7.75;2.50;;;;;;;9.10;100.00;101345.13;5072445;28;20113;-52
2023/01/04 05:16:55;;;;;;;4.80;2.50;;;;;;;9.17;100.00;101331.69;5067604;28;20503;-51
2023/01/04 05:19:24;;;;;;;6.20;2.78;;;;;;;9.12;100.00;101334.53;5071263;28;20479;-51
2023/01/04 05:21:52;;;;;;;4.82;2.88;;;;;;;9.13;100.00;101325.75;5073242;28;20052;-51
2023/01/04 05:24:20;;;;;;;6.65;2.92;;;;;;;9.16;100.00;101332.63;5072692;28;20072;-50
2023/01/04 05:26:48;;;;;;;4.93;2.85;;;;;;;9.16;100.00;101327.38;5073357;28;20059;-52
2023/01/04 05:32:00;;;;;;;6.57;2.60;;;;;;;9.17;100.00;101323.81;5069115;28;20411;-53
2023/01/04 05:34:28;;;;;;;6.97;2.92;;;;;;;9.20;100.00;101315.78;5068864;28;20072;-51
2023/01/04 05:36:56;;;;;;;6.72;3.00;;;;;;;9.17;100.00;101315.94;5073197;28;20044;-51
2023/01/04 05:39:24;;;;;;;5.65;2.83;;;;;;;9.17;100.00;101303.66;5073434;28;20128;-52
2023/01/04 05:44:38;;;;;;;6.40;2.80;;;;;;;9.19;100.00;101298.34;5068619;28;20523;-51
2023/01/04 05:47:07;;;;;;;6.75;2.85;;;;;;;9.22;100.00;101306.06;5071821;28;20066;-53
2023/01/04 05:49:42;;;;;;;6.78;3.00;;;;;;;9.21;100.00;101305.19;5068695;28;20075;-52
2023/01/04 05:52:10;;;;;;;5.90;2.92;;;;;;;9.26;100.00;101297.09;5069921;28;20060;-52
2023/01/04 05:54:39;;;;;;;5.00;3.00;;;;;;;9.28;100.00;101303.09;5072789;28;20394;-51
2023/01/04 05:57:08;;;;;;;4.97;2.80;;;;;;;9.30;100.00;101291.59;5069273;28;20430;-53
2023/01/04 05:59:36;;;;;;;6.53;3.08;;;;;;;9.32;100.00;101294.13;5068489;28;20078;-51
2023/01/04 06:02:15;;;;;;;;;;;;;;;9.30;100.00;101281.09;5073103;28;20383;-58
2023/01/04 06:04:43;;;;;;;6.90;3.38;;;;;;;9.29;100.00;101273.31;5072666;28;20283;-58
2023/01/04 06:07:11;;;;;;;5.65;3.08;;;;;;;9.31;100.00;101268.81;5072678;28;20060;-52
2023/01/04 06:09:40;;;;;;;6.25;3.30;;;;;;;9.37;100.00;101275.53;5072700;28;20056;-53
2023/01/04 06:12:08;;;;;;;8.10;3.50;;;;;;;9.36;100.00;101276.47;5068933;28;20048;-54
2023/01/04 06:14:37;;;;;;;5.28;3.03;;;;;;;9.37;100.00;101280.78;5068308;28;20059;-57
2023/01/04 06:17:05;;;;;;;6.88;3.17;;;;;;;9.38;100.00;101274.59;5071232;28;20055;-54
2023/01/04 06:19:35;;;;;;;7.70;3.10;;;;;;;9.36;100.00;101276.47;5072666;28;20114;-57
2023/01/04 06:22:03;;;;;;;5.72;2.92;;;;;;;9.38;100.00;101271.97;5072390;28;20051;-58
2023/01/04 06:24:32;;;;;;;7.40;3.05;;;;;;;9.37;100.00;101273.75;5069315;28;20075;-58
2023/01/04 06:27:01;;;;;;;6.80;3.22;;;;;;;9.39;100.00;101276.28;5067816;28;20110;-58
2023/01/04 06:29:29;;;;;;;5.47;3.05;;;;;;;9.41;100.00;101279.69;5072332;28;20045;-58
2023/01/04 06:31:57;;;;;;;6.60;2.83;;;;;;;9.42;100.00;101266.50;5072545;28;20162;-54
2023/01/04 06:34:25;;;;;;;5.57;2.80;;;;;;;9.44;100.00;101280.38;5072128;28;20094;-54
2023/01/04 06:36:59;;;;;;;5.43;2.85;;;;;;;9.48;100.00;101278.44;5072210;28;20072;-54
2023/01/04 06:39:28;;;;;;;6.55;3.00;;;;;;;9.52;100.00;101287.84;5072359;28;20052;-54
2023/01/04 06:41:56;;;;;;;7.00;3.40;;;;;;;9.52;100.00;101287.84;5072512;28;20357;-53
2023/01/04 06:44:33;;;;;;;5.15;2.90;;;;;;;9.58;100.00;101284.03;5070911;28;20068;-53
2023/01/04 06:47:01;;;;;;;5.78;3.00;;;;;;;9.62;100.00;101282.94;5072334;28;20479;-53
2023/01/04 06:49:29;;;;;;;6.70;3.22;;;;;;;9.63;100.00;101274.97;5072426;28;20043;-53
2023/01/04 06:51:59;;;;;;;4.78;2.95;;;;;;;9.63;100.00;101268.88;5072105;28;20080;-53
2023/01/04 06:54:28;;;;;;;6.85;2.90;;;;;;;9.64;100.00;101279.28;5068434;28;20515;-54
2023/01/04 06:56:56;;;;;;;7.20;3.20;;;;;;;9.72;100.00;101271.00;5069470;28;20056;-54
2023/01/04 06:59:24;;;;;;;7.05;3.22;;;;;;;9.70;100.00;101282.53;5070973;28;20053;-53
2023/01/04 07:01:53;;;;;;;4.90;3.00;;;;;;;9.70;100.00;101266.78;5072175;28;20080;-53
2023/01/04 07:04:21;;;;;;;6.55;3.20;;;;;;;9.71;100.00;101261.44;5071870;28;20126;-53
2023/01/04 07:06:49;;;;;;;5.90;3.05;;;;;;;9.74;100.00;101258.63;5072146;28;20032;-52
2023/01/04 07:09:19;;;;;;;3.83;2.67;;;;;;;9.76;100.00;101261.16;5072037;28;20055;-54
2023/01/04 07:11:47;;;;;;;4.22;2.67;;;;;;;9.77;100.00;101268.97;5072076;28;20106;-53
2023/01/04 07:14:15;;;;;;;10.07;3.10;;;;;;;9.84;100.00;101256.34;5071776;28;20495;-52
2023/01/04 07:16:44;;;;;;;6.95;2.83;;;;;;;9.87;100.00;101264.06;5071846;28;20131;-52
2023/01/04 07:19:12;;;;;;;6.68;2.40;;;;;;;9.87;100.00;101266.69;5072196;28;20048;-51
2023/01/04 07:21:40;;;;;;;5.82;2.58;;;;;;;9.89;100.00;101259.56;5071714;28;20055;-53
2023/01/04 07:24:09;;;;;;;6.60;2.42;;;;;;;9.87;100.00;101248.31;5069500;28;20482;-54
2023/01/04 07:26:39;;;;;;;5.72;2.65;;;;;;;9.86;100.00;101235.22;5067579;28;20047;-54
2023/01/04 07:29:16;;;;;;;4.43;2.40;;;;;;;9.87;100.00;101243.06;5070440;28;20507;-54
2023/01/04 07:31:46;;;;;;;6.10;2.25;;;;;;;9.88;100.00;101234.22;5071379;28;20464;-52
2023/01/04 07:34:15;;;;;;;5.68;2.30;;;;;;;9.91;100.00;101222.69;5071303;28;20114;-53
2023/01/04 07:36:43;;;;;;;6.38;2.35;;;;;;;9.90;100.00;101227.09;5070961;28;20049;-53
2023/01/04 07:39:11;;;;;;;4.18;2.10;;;;;;;9.94;100.00;101228.63;5071276;28;20442;-53
2023/01/04 07:41:42;;;;;;;8.13;2.60;;;;;;;9.95;100.00;101229.47;5071226;28;20052;-52
2023/01/04 07:44:11;;;;;;;5.63;2.15;;;;;;;10.00;100.00;101213.47;5071534;28;20372;-54
2023/01/04 07:46:41;;;;;;;5.72;2.15;;;;;;;9.97;100.00;101202.16;5071653;28;20059;-54
2023/01/04 07:49:12;;;;;;;5.93;2.30;;;;;;;9.97;100.00;101202.16;5074043;28;20411;-53
2023/01/04 07:51:45;;;;;;;5.03;2.20;;;;;;;10.00;100.00;101197.69;5074923;28;20552;-53
2023/01/04 07:54:15;;;;;;;4.82;2.35;;;;;;;9.98;100.00;101190.72;5075048;28;20048;-54
2023/01/04 07:56:45;;;;;;;4.35;2.20;;;;;;;9.99;100.00;101186.31;5074073;28;20499;-53
2023/01/04 07:59:14;;;;;;;6.20;2.20;;;;;;;10.03;100.00;101169.44;5070934;28;20049;-55
2023/01/04 08:01:42;;;;;;;5.82;2.08;;;;;;;10.02;100.00;101173.03;5069479;28;20041;-59
2023/01/04 08:04:12;;;;;;;5.68;2.78;;;;;;;10.03;100.00;101179.13;5073917;28;20446;-58
2023/01/04 08:06:42;;;;;;;3.30;1.88;;;;;;;10.05;100.00;101187.75;5070473;28;20037;-59
2023/01/04 08:09:11;;;;;;;4.03;2.30;;;;;;;10.07;100.00;101178.84;5068482;28;20044;-59
2023/01/04 08:11:40;;;;;;;6.38;2.25;;;;;;;10.05;100.00;101187.75;5074038;28;20060;-58
2023/01/04 08:14:10;;;;;;;6.50;2.70;;;;;;;10.09;100.00;101190.13;5075036;28;20041;-58
2023/01/04 08:16:40;;;;;;;5.63;2.30;;;;;;;10.09;100.00;101184.88;5073855;28;20040;-59
2023/01/04 08:19:13;;;;;;;10.45;2.78;;;;;;;10.06;100.00;101194.69;5073528;28;20063;-58
2023/01/04 08:21:41;;;;;;;7.13;3.03;;;;;;;10.05;100.00;101195.63;5070422;28;20048;-58
2023/01/04 08:24:12;;;;;;;4.32;2.47;;;;;;;10.10;100.00;101197.06;5073658;28;20043;-59
2023/01/04 08:26:40;;;;;;;6.20;2.40;;;;;;;10.14;100.00;101190.72;5068767;28;20041;-59
2023/01/04 08:29:10;;;;;;;5.55;2.45;;;;;;;10.14;100.00;101192.47;5073204;28;20056;-59
2023/01/04 08:31:39;;;;;;;7.43;2.30;;;;;;;10.15;100.00;101188.91;5069069;28;20048;-58
2023/01/04 08:34:08;;;;;;;7.20;2.60;;;;;;;10.19;100.00;101195.69;5069484;28;20040;-59
2023/01/04 08:36:46;;;;;;;4.65;2.55;;;;;;;10.17;100.00;101210.72;5073106;28;20496;-55
2023/01/04 08:39:14;;;;;;;7.60;2.72;;;;;;;10.17;100.00;101197.56;5069682;28;20055;-59
2023/01/04 08:41:52;;;;;;;4.25;2.10;;;;;;;10.20;100.00;101196.53;5073148;28;20415;-59
2023/01/04 08:44:33;;;;;;;5.97;2.30;;;;;;;10.21;100.00;101193.84;5072979;28;20492;-59
2023/01/04 08:47:01;;;;;;;5.93;2.30;;;;;;;10.25;100.00;101197.97;5071005;28;20048;-58
2023/01/04 08:49:29;;;;;;;4.78;2.25;;;;;;;10.26;100.00;101199.66;5073445;28;20040;-59
2023/01/04 08:51:58;;;;;;;5.25;2.40;;;;;;;10.27;100.00;101201.34;5069581;28;20106;-59
2023/01/04 08:54:27;;;;;;;5.05;2.22;;;;;;;10.29;100.00;101201.25;5072722;28;20052;-58
2023/01/04 08:56:55;;;;;;;6.78;2.70;;;;;;;10.30;100.00;101198.53;5068541;28;20048;-58
2023/01/04 08:59:23;;;;;;;5.63;2.35;;;;;;;10.29;100.00;101186.34;5068925;28;20399;-58
2023/01/04 09:01:53;;;;;;;4.65;2.30;;;;;;;10.29;100.00;101191.59;5072746;28;20036;-59
2023/01/04 09:04:28;;;;;;;5.15;2.55;;;;;;;10.30;100.00;101184.56;5072762;28;20139;-53
2023/01/04 09:06:57;;;;;;;5.82;2.47;;;;;;;10.31;100.00;101179.19;5068555;28;20048;-54
2023/01/04 09:09:25;;;;;;;6.00;2.25;;;;;;;10.34;100.00;101185.22;5069092;28;20544;-54
2023/01/04 09:11:53;;;;;;;5.65;2.35;;;;;;;10.34;100.00;101182.59;5072274;28;20495;-54
2023/01/04 09:14:21;;;;;;;7.40;2.67;;;;;;;10.34;100.00;101175.53;5072223;28;20131;-54
2023/01/04 09:16:49;;;;;;;5.07;2.50;;;;;;;10.37;100.00;101166.66;5072497;28;20087;-55
2023/01/04 09:19:19;;;;;;;5.72;2.83;;;;;;;10.34;100.00;101172.09;5072279;28;20181;-53
2023/01/04 09:21:49;;;;;;;4.40;2.33;;;;;;;10.39;100.00;101160.38;5072031;28;20040;-54
2023/01/04 09:24:20;;;;;;;6.13;2.50;;;;;;;10.41;100.00;101157.66;5068681;28;20045;-54
2023/01/04 09:26:48;;;;;;;4.25;2.50;;;;;;;10.40;100.00;101166.47;5065721;28;20065;-52
2023/01/04 09:29:16;;;;;;;6.03;2.90;;;;;;;10.40;100.00;101187.50;5070435;28;20115;-54
2023/01/04 09:31:44;;;;;;;6.32;2.72;;;;;;;10.46;100.00;101188.00;5067172;28;20377;-54
2023/01/04 09:34:13;;;;;;;6.85;2.88;;;;;;;10.46;100.00;101180.09;5072199;28;20491;-54
2023/01/04 09:36:46;;;;;;;8.98;3.20;;;;;;;10.48;100.00;101177.38;5073155;28;20558;-54
2023/01/04 09:39:16;;;;;;;6.38;3.00;;;;;;;10.51;100.00;101186.88;5071880;28;20040;-54
2023/01/04 09:41:56;;;;;;;8.90;3.42;;;;;;;10.51;100.00;101192.97;5067884;28;20043;-53
2023/01/04 09:44:33;;;;;;;11.98;3.70;;;;;;;10.52;100.00;101192.03;5068120;28;20036;-53
2023/01/04 09:47:30;;;;;;;6.80;2.85;;;;;;;10.51;100.00;101194.78;5072181;28;20432;-54
2023/01/04 09:50:04;;;;;;;7.78;3.40;;;;;;;10.51;100.00;101200.84;5072840;28;20045;-53
2023/01/04 09:52:43;;;;;;;8.60;3.28;;;;;;;10.53;100.00;101199.00;5072718;28;20068;-55
2023/01/04 09:55:19;;;;;;;9.60;3.33;;;;;;;10.54;100.00;101198.06;5072853;28;20585;-54
2023/01/04 09:58:18;;;;;;;12.38;3.30;;;;;;;10.54;100.00;101202.47;5070365;28;20415;-55
2023/01/04 10:00:50;;;;;;;6.50;3.05;;;;;;;10.57;100.00;101203.13;5067053;28;20128;-54
2023/01/04 10:03:23;;;;;;;8.85;3.33;;;;;;;10.54;100.00;101210.34;5068406;28;20044;-54
2023/01/04 10:05:55;;;;;;;6.18;3.50;;;;;;;10.57;100.00;101211.03;5070974;28;20048;-54
2023/01/04 10:08:25;;;;;;;6.82;3.30;;;;;;;10.55;100.00;101209.44;5066935;28;20582;-52
2023/01/04 10:11:07;;;;;;;7.68;3.05;;;;;;;10.57;100.00;101210.19;5068189;28;20048;-59
2023/01/04 10:13:55;;;;;;;9.35;3.50;;;;;;;10.54;100.00;101205.09;5071027;28;20496;-54
2023/01/04 10:16:43;;;;;;;5.43;2.65;;;;;;;10.56;100.00;101209.34;5067336;28;20528;-59
2023/01/04 10:19:47;;;;;;;5.97;2.70;;;;;;;10.62;100.00;101208.97;5065462;28;20032;-59
2023/01/04 10:22:45;;;;;;;7.50;3.13;;;;;;;10.62;100.00;101208.13;5069830;28;20495;-58
2023/01/04 10:25:24;;;;;;;5.82;2.88;;;;;;;10.64;100.00;101216.78;5070119;28;20045;-58
2023/01/04 10:28:06;;;;;;;7.10;3.00;;;;;;;10.64;100.00;101222.03;5068938;28;20503;-58
2023/01/04 10:30:44;;;;;;;5.85;2.97;;;;;;;10.63;100.00;101209.81;5067147;28;20039;-58
2023/01/04 10:33:14;;;;;;;5.30;2.28;;;;;;;10.61;100.00;101209.06;5066040;28;20578;-52
2023/01/04 10:35:44;;;;;;;5.60;2.42;;;;;;;10.63;100.00;101221.19;5070949;28;20035;-51
2023/01/04 10:38:17;;;;;;;5.30;2.45;;;;;;;10.63;100.00;101210.69;5071231;28;20037;-54
2023/01/04 10:40:49;;;;;;;4.85;2.60;;;;;;;10.68;100.00;101212.19;5069372;28;20479;-53
2023/01/04 10:43:36;;;;;;;4.97;2.67;;;;;;;10.67;100.00;101218.38;5071140;28;20064;-55
2023/01/04 10:46:30;;;;;;;4.40;2.50;;;;;;;10.70;100.00;101207.66;5068471;28;20046;-54
2023/01/04 10:49:07;;;;;;;4.63;2.30;;;;;;;10.70;100.00;101207.66;5070978;28;20494;-55
2023/01/04 10:51:41;;;;;;;5.75;2.63;;;;;;;10.68;100.00;101201.66;5065460;28;20117;-54
2023/01/04 10:54:19;;;;;;;5.78;2.97;;;;;;;10.69;100.00;101209.47;5065562;28;20053;-54
2023/01/04 10:56:56;;;;;;;7.22;2.90;;;;;;;10.66;100.00;101204.38;5070895;28;20106;-54
2023/01/04 10:59:38;;;;;;;8.02;3.70;;;;;;;10.72;100.00;101195.28;5071133;28;20475;-54
2023/01/04 11:02:19;;;;;;;9.13;3.40;;;;;;;10.69;100.00;101198.06;5066079;28;20391;-54
2023/01/04 11:04:55;;;;;;;7.05;3.33;;;;;;;10.70;100.00;101189.25;5066012;28;20037;-53
2023/01/04 11:07:29;;;;;;;6.35;3.20;;;;;;;10.74;100.00;101185.50;5070734;28;20087;-54
2023/01/04 11:10:02;;;;;;;6.60;3.45;;;;;;;10.76;100.00;101183.63;5070528;28;20061;-54
2023/01/04 11:12:32;;;;;;;5.55;2.72;;;;;;;10.75;100.00;101181.94;5067425;28;20060;-54
2023/01/04 11:15:00;;;;;;;6.00;3.17;;;;;;;10.78;100.00;101187.88;5068845;28;20048;-54
2023/01/04 11:17:30;;;;;;;5.25;2.95;;;;;;;10.77;100.00;101186.16;5071680;28;20053;-53
2023/01/04 11:19:58;;;;;;;5.97;2.67;;;;;;;10.77;100.00;101185.31;5067852;28;20135;-55
2023/01/04 11:22:34;;;;;;;6.88;2.50;;;;;;;10.80;100.00;101177.25;5068307;28;20037;-53
2023/01/04 11:25:07;;;;;;;5.20;2.58;;;;;;;10.80;100.00;101175.44;5075464;28;20048;-54
2023/01/04 11:28:04;;;;;;;3.90;2.45;;;;;;;10.81;100.00;101173.66;5073732;28;20410;-55
2023/01/04 11:30:46;;;;;;;6.68;2.50;;;;;;;10.79;100.00;101167.66;5070668;28;20079;-53
2023/01/04 11:33:18;;;;;;;5.78;2.50;;;;;;;10.81;100.00;101165.75;5074313;28;20044;-56
2023/01/04 11:35:48;;;;;;;4.22;2.30;;;;;;;10.82;100.00;101168.34;5075496;28;20426;-54
2023/01/04 11:38:19;;;;;;;5.47;2.60;;;;;;;10.82;100.00;101165.69;5075805;28;20065;-54
2023/01/04 11:41:00;;;;;;;4.78;2.50;;;;;;;10.85;100.00;101155.91;5072195;28;20052;-54
2023/01/04 11:43:30;;;;;;;5.18;2.65;;;;;;;10.85;100.00;101151.47;5070891;28;20044;-53
2023/01/04 11:46:02;;;;;;;7.15;2.72;;;;;;;10.85;100.00;101151.47;5075300;28;20056;-55
2023/01/04 11:48:39;;;;;;;5.60;3.28;;;;;;;10.83;100.00;101143.69;5075286;28;20094;-53
2023/01/04 11:51:17;;;;;;;5.43;2.30;;;;;;;10.82;100.00;101152.53;5075430;28;20041;-52
2023/01/04 11:53:46;;;;;;;2.47;1.85;;;;;;;10.82;100.00;101149.91;5075021;28;20110;-54
2023/01/04 11:56:22;;;;;;;3.33;2.25;;;;;;;10.85;100.00;101150.66;5070384;28;20102;-54
2023/01/04 11:59:10;;;;;;;5.32;2.50;;;;;;;10.89;100.00;101134.56;5072147;28;20080;-55
2023/01/04 12:01:40;;;;;;;3.90;2.42;;;;;;;10.87;100.00;101138.25;5075073;28;20040;-53
2023/01/04 12:04:18;;;;;;;5.07;2.42;;;;;;;10.96;100.00;101132.41;5074970;28;20472;-54
2023/01/04 12:06:51;;;;;;;3.05;1.80;;;;;;;10.96;100.00;101124.50;5073662;28;20498;-55
2023/01/04 12:09:21;;;;;;;4.32;2.05;;;;;;;10.97;100.00;101128.84;5071429;28;20036;-55
2023/01/04 12:11:52;;;;;;;2.58;1.63;;;;;;;10.97;100.00;101126.19;5072282;28;20052;-54
2023/01/04 12:14:25;;;;;;;4.47;1.90;;;;;;;10.95;100.00;101134.19;5072171;28;20047;-53
2023/01/04 12:17:02;;;;;;;3.13;1.88;;;;;;;10.97;100.00;101132.31;5069333;28;20437;-54
2023/01/04 12:19:30;;;;;;;2.53;1.80;;;;;;;11.02;100.00;101133.84;5074712;28;20433;-54
2023/01/04 12:22:01;;;;;;;3.25;2.10;;;;;;;11.05;100.00;101137.09;5072875;28;20080;-54
2023/01/04 12:24:31;;;;;;;3.13;1.83;;;;;;;11.09;100.00;101138.59;5070307;28;20503;-54
2023/01/04 12:27:01;;;;;;;4.68;1.92;;;;;;;11.08;100.00;101136.91;5072630;28;20064;-53
2023/01/04 12:29:54;;;;;;;4.10;2.10;;;;;;;11.13;100.00;101126.09;5074433;28;20060;-53
2023/01/04 12:32:40;;;;;;;;;;;;;;;11.17;100.00;101106.53;5073002;28;20161;-53
2023/01/04 12:35:57;;;;;;;4.68;2.20;;;;;;;11.19;100.00;101107.28;5070654;28;19926;-55